首页
METAR-TAF:

METAR-TAF

机场 :

布鲁塞尔机场

布鲁塞尔, 比利时

纬度: 50-54N, 经度: 004-32E, 海拔: 55米

当前天气观测

该预报发布于17分钟前的02:20 UTC
风速4节,风向南转南东
温度 3°C
湿度 93%
气压 1011 hPa
能见度10公里或以上
1500米以下无云,无积雨云

METAR: EBBR 170220Z 15004KT CAVOK 03/02 Q1011 NOSIG

时间: 03:37 (02:37 UTC)

预报

该预报发布于3小时和29分钟前的23:08 UTC
预报有效从17日的 00点(UTC)到 18日的 06点(UTC)
风速4节,风向南转南东
能见度10公里或以上
散云层高于3000英尺
短暂存在
从 17日的 02点(UTC)到 17日的 09点(UTC)
能見度: 3000
轻雾
几率 30% :
短暂存在
从 17日的 04点(UTC)到 17日的 07点(UTC)
能見度: 1800
浅雾
短暂存在
从 17日的 22点(UTC)到 18日的 06点(UTC)
能見度: 3500
多云层高于800英尺
雨, 雨, 毛毛雨
成为
从 18日的 00点(UTC)到 18日的 02点(UTC)
风速10节,风向北转西北

TAF: EBBR 162308Z 1700/1806 16004KT 9999 SCT030 TEMPO 1702/1709 3000 BR PROB30 TEMPO 1704/1707 1800 MIFG TEMPO 1722/1806 3500 RA RADZ BKN008 BECMG 1800/1802 34010KT

超过4000个机场的气象观测和天气预报(METAR&TAF报告)。

可查询的气象台以黄色和红色小点在地图上表示。

将鼠标移到小点上方,可查看气象台名称。

然后点击查看天气观测和预报。

如需切换地图:点击带黑十字的绿色按钮放大地图;点击带横线的绿色按钮缩小地图;或者点击绿色箭头查看邻近地区的地图。


METAR-TAF: